Time;durP1;ratioP1;P1;durP2;ratioP2;P2;SDS_P1;SDS_P2;PMS_P1;PMS_P2;Temp;Humidity;BMP_temperature;BMP_pressure;BME280_temperature;BME280_humidity;BME280_pressure;Samples;Min_cycle;Max_cycle;Signal;HPM_P1;HPM_P2
2022/06/16 00:00:19;;;;;;;62.00;6.03;;;;;;;;;;5055472;28;21006;-82
2022/06/16 00:02:47;;;;;;;61.07;6.00;;;;;;;;;;5059482;28;20470;-84
2022/06/16 00:05:16;;;;;;;62.90;5.40;;;;;;;;;;5058533;28;20448;-83
2022/06/16 00:07:43;;;;;;;62.53;5.40;;;;;;;;;;5061156;28;20919;-83
2022/06/16 00:10:11;;;;;;;61.63;5.37;;;;;;;;;;5060503;28;20463;-83
2022/06/16 00:12:39;;;;;;;62.97;5.80;;;;;;;;;;5058326;28;20814;-82
2022/06/16 00:15:07;;;;;;;62.57;5.57;;;;;;;;;;5057819;28;20435;-85
2022/06/16 00:17:36;;;;;;;63.67;5.03;;;;;;;;;;5057771;28;20443;-82
2022/06/16 00:20:04;;;;;;;62.80;5.77;;;;;;;;;;5057339;28;20472;-82
2022/06/16 00:22:32;;;;;;;62.80;5.40;;;;;;;;;;5057061;28;20439;-83
2022/06/16 00:24:59;;;;;;;61.17;5.60;;;;;;;;;;5057371;28;20445;-82
2022/06/16 00:27:26;;;;;;;63.27;5.93;;;;;;;;;;5057651;28;20443;-83
2022/06/16 00:29:54;;;;;;;64.60;6.27;;;;;;;;;;5057176;28;20464;-83
2022/06/16 00:32:21;;;;;;;64.07;6.07;;;;;;;;;;5057333;28;20483;-83
2022/06/16 00:34:50;;;;;;;63.43;5.50;;;;;;;;;;5055706;28;20454;-82
2022/06/16 00:37:17;;;;;;;61.77;5.17;;;;;;;;;;5055527;28;20440;-82
2022/06/16 00:39:45;;;;;;;61.07;5.13;;;;;;;;;;5057397;28;20475;-82
2022/06/16 00:42:15;;;;;;;62.77;6.83;;;;;;;;;;5056802;28;20470;-83
2022/06/16 00:44:44;;;;;;;64.00;6.87;;;;;;;;;;5057601;28;20462;-83
2022/06/16 00:47:11;;;;;;;61.27;5.30;;;;;;;;;;5057686;28;20455;-82
2022/06/16 00:49:40;;;;;;;61.83;4.77;;;;;;;;;;5056860;28;20546;-83
2022/06/16 00:52:11;;;;;;;62.20;5.77;;;;;;;;;;5055884;28;20478;-82
2022/06/16 00:54:40;;;;;;;61.03;5.13;;;;;;;;;;5056166;28;20458;-82
2022/06/16 00:57:09;;;;;;;62.17;5.10;;;;;;;;;;5057433;28;20439;-82
2022/06/16 00:59:37;;;;;;;62.73;5.20;;;;;;;;;;5057704;28;20439;-83
2022/06/16 01:02:06;;;;;;;60.40;5.00;;;;;;;;;;5057033;28;20443;-83
2022/06/16 01:07:21;;;;;;;67.87;5.97;;;;;;;;;;5055568;28;20426;-83
2022/06/16 01:09:48;;;;;;;61.80;5.27;;;;;;;;;;5057302;28;20866;-84
2022/06/16 01:15:32;;;;;;;62.40;6.10;;;;;;;;;;4996159;28;20437;-83
2022/06/16 01:18:03;;;;;;;61.10;5.90;;;;;;;;;;5004133;28;20538;-82
2022/06/16 01:20:38;;;;;;;62.33;6.20;;;;;;;;;;5046914;28;20490;-82
2022/06/16 01:23:19;;;;;;;62.00;5.37;;;;;;;;;;5067661;28;20447;-82
2022/06/16 01:25:53;;;;;;;61.23;5.60;;;;;;;;;;5061279;28;20606;-82
2022/06/16 01:28:22;;;;;;;63.83;6.10;;;;;;;;;;5053254;28;20859;-82
2022/06/16 01:30:55;;;;;;;62.10;5.70;;;;;;;;;;5058412;28;20537;-82
2022/06/16 01:33:25;;;;;;;63.17;5.87;;;;;;;;;;5053614;28;20481;-82
2022/06/16 01:35:55;;;;;;;62.07;5.77;;;;;;;;;;5053363;28;20893;-82
2022/06/16 01:38:26;;;;;;;62.37;5.10;;;;;;;;;;5053348;28;20447;-82
2022/06/16 01:40:56;;;;;;;62.20;5.70;;;;;;;;;;5054910;28;20460;-82
2022/06/16 01:43:26;;;;;;;62.37;5.73;;;;;;;;;;5055587;28;20438;-83
2022/06/16 01:45:58;;;;;;;62.10;6.57;;;;;;;;;;5055734;28;20442;-82
2022/06/16 01:48:26;;;;;;;62.10;5.37;;;;;;;;;;5058442;28;20437;-82
2022/06/16 01:50:55;;;;;;;62.87;6.20;;;;;;;;;;5058781;28;20463;-82
2022/06/16 01:53:26;;;;;;;65.63;6.57;;;;;;;;;;5059330;28;20478;-83
2022/06/16 01:55:55;;;;;;;61.60;6.17;;;;;;;;;;5066977;28;20439;-82
2022/06/16 01:58:24;;;;;;;64.50;6.17;;;;;;;;;;5061757;28;20430;-82
2022/06/16 02:00:52;;;;;;;62.80;5.97;;;;;;;;;;5061918;28;20516;-83
2022/06/16 02:03:23;;;;;;;65.07;6.17;;;;;;;;;;5062063;28;20447;-84
2022/06/16 02:05:52;;;;;;;62.47;5.80;;;;;;;;;;5061705;28;20810;-83
2022/06/16 02:08:22;;;;;;;62.83;6.27;;;;;;;;;;5060374;28;20450;-83
2022/06/16 02:10:51;;;;;;;63.30;6.23;;;;;;;;;;5062748;28;20976;-83
2022/06/16 02:13:20;;;;;;;61.20;5.63;;;;;;;;;;5062067;28;20485;-85
2022/06/16 02:15:51;;;;;;;64.00;5.93;;;;;;;;;;5062781;28;20605;-84
2022/06/16 02:18:20;;;;;;;60.90;5.73;;;;;;;;;;5061815;28;20473;-83
2022/06/16 02:20:52;;;;;;;61.93;5.90;;;;;;;;;;5061078;28;20464;-84
2022/06/16 02:23:20;;;;;;;61.17;5.70;;;;;;;;;;5058788;28;20444;-84
2022/06/16 02:25:48;;;;;;;62.57;6.77;;;;;;;;;;5059048;28;20442;-83
2022/06/16 02:28:16;;;;;;;62.70;7.03;;;;;;;;;;5061225;28;20469;-83
2022/06/16 02:30:48;;;;;;;61.90;5.63;;;;;;;;;;5061179;28;20477;-84
2022/06/16 02:33:20;;;;;;;62.30;6.67;;;;;;;;;;5061033;28;20478;-84
2022/06/16 02:35:53;;;;;;;64.43;6.80;;;;;;;;;;5060662;28;20433;-84
2022/06/16 02:38:28;;;;;;;62.37;6.00;;;;;;;;;;5061052;28;20751;-83
2022/06/16 02:41:04;;;;;;;62.30;6.27;;;;;;;;;;5060869;28;20878;-84
2022/06/16 02:43:42;;;;;;;62.90;6.53;;;;;;;;;;5059790;28;20455;-84
2022/06/16 02:46:18;;;;;;;62.17;6.07;;;;;;;;;;5061698;28;20416;-84
2022/06/16 02:48:47;;;;;;;63.10;7.03;;;;;;;;;;5060895;28;20813;-84
2022/06/16 02:51:17;;;;;;;63.80;7.00;;;;;;;;;;5062316;28;20938;-84
2022/06/16 02:53:50;;;;;;;69.20;6.70;;;;;;;;;;5062978;28;20517;-84
2022/06/16 02:56:22;;;;;;;62.67;6.83;;;;;;;;;;5062168;28;20471;-84
2022/06/16 02:58:51;;;;;;;62.17;6.07;;;;;;;;;;5062011;28;20433;-84
2022/06/16 03:01:19;;;;;;;62.87;6.40;;;;;;;;;;5060765;28;20458;-84
2022/06/16 03:04:01;;;;;;;63.93;6.50;;;;;;;;;;5060459;28;20945;-84
2022/06/16 03:06:30;;;;;;;68.63;7.50;;;;;;;;;;5061045;28;20459;-84
2022/06/16 03:08:58;;;;;;;63.40;5.60;;;;;;;;;;5061099;28;20453;-84
2022/06/16 03:11:26;;;;;;;62.70;6.10;;;;;;;;;;5060397;28;20517;-84
2022/06/16 03:13:53;;;;;;;61.80;5.90;;;;;;;;;;5062443;28;20850;-83
2022/06/16 03:16:21;;;;;;;61.47;5.80;;;;;;;;;;5060716;28;20483;-84
2022/06/16 03:18:50;;;;;;;64.77;6.60;;;;;;;;;;5060555;28;20486;-84
2022/06/16 03:21:17;;;;;;;60.40;5.23;;;;;;;;;;5060796;28;20533;-84
2022/06/16 03:23:46;;;;;;;63.90;7.13;;;;;;;;;;5061857;28;20461;-84
2022/06/16 03:26:13;;;;;;;61.80;5.47;;;;;;;;;;5062559;28;20439;-84
2022/06/16 03:28:40;;;;;;;62.80;5.93;;;;;;;;;;5061861;28;20449;-84
2022/06/16 03:31:08;;;;;;;70.20;6.20;;;;;;;;;;5062083;28;20474;-84
2022/06/16 03:33:35;;;;;;;61.37;5.50;;;;;;;;;;5061291;28;20484;-84
2022/06/16 03:36:02;;;;;;;61.97;5.50;;;;;;;;;;5062209;28;20439;-84
2022/06/16 03:38:35;;;;;;;61.83;6.00;;;;;;;;;;5060926;28;20931;-84
2022/06/16 03:41:04;;;;;;;61.97;5.67;;;;;;;;;;5061412;28;20554;-84
2022/06/16 03:43:31;;;;;;;62.53;5.87;;;;;;;;;;5062142;28;20516;-84
2022/06/16 03:45:58;;;;;;;63.47;6.10;;;;;;;;;;5060002;28;20438;-84
2022/06/16 03:48:26;;;;;;;62.00;6.13;;;;;;;;;;5058826;28;20447;-84
2022/06/16 03:50:53;;;;;;;62.67;6.00;;;;;;;;;;5061509;28;20489;-84
2022/06/16 03:53:20;;;;;;;62.10;6.00;;;;;;;;;;5061563;28;20483;-84
2022/06/16 03:55:48;;;;;;;61.57;5.37;;;;;;;;;;5062008;28;20439;-83
2022/06/16 03:58:16;;;;;;;61.70;6.00;;;;;;;;;;5061303;28;20442;-84
2022/06/16 04:00:44;;;;;;;62.07;6.83;;;;;;;;;;5060999;28;20466;-84
2022/06/16 04:05:56;;;;;;;64.17;5.97;;;;;;;;;;5060997;28;21011;-84
2022/06/16 04:08:24;;;;;;;61.07;5.20;;;;;;;;;;5060070;28;20439;-84
2022/06/16 04:10:51;;;;;;;61.00;5.03;;;;;;;;;;5060468;28;20478;-84
2022/06/16 04:13:20;;;;;;;64.00;6.07;;;;;;;;;;5060592;28;20482;-84
2022/06/16 04:15:47;;;;;;;62.87;6.40;;;;;;;;;;5058382;28;20454;-84
2022/06/16 04:18:15;;;;;;;61.80;5.57;;;;;;;;;;5059512;28;20968;-83
2022/06/16 04:20:42;;;;;;;63.50;5.83;;;;;;;;;;5058528;28;20899;-83
2022/06/16 04:23:11;;;;;;;61.40;5.80;;;;;;;;;;5057943;28;20466;-84
2022/06/16 04:25:38;;;;;;;61.73;5.47;;;;;;;;;;5057534;28;20474;-84
2022/06/16 04:28:07;;;;;;;61.07;5.33;;;;;;;;;;5055676;28;20471;-83
2022/06/16 04:30:36;;;;;;;61.50;6.07;;;;;;;;;;5055496;28;20990;-83
2022/06/16 04:33:04;;;;;;;62.60;5.23;;;;;;;;;;5061701;28;20479;-83
2022/06/16 04:35:31;;;;;;;60.67;5.70;;;;;;;;;;5062048;28;20467;-83
2022/06/16 04:37:58;;;;;;;61.63;5.10;;;;;;;;;;5061453;28;20448;-83
2022/06/16 04:40:25;;;;;;;61.63;5.90;;;;;;;;;;5061262;28;20893;-83
2022/06/16 04:42:53;;;;;;;63.57;5.57;;;;;;;;;;5061606;28;20439;-83
2022/06/16 04:45:20;;;;;;;61.87;5.37;;;;;;;;;;5061158;28;20444;-83
2022/06/16 04:47:49;;;;;;;61.20;5.60;;;;;;;;;;5061739;28;20456;-83
2022/06/16 04:50:18;;;;;;;63.47;6.27;;;;;;;;;;5060579;28;20480;-83
2022/06/16 04:52:46;;;;;;;60.40;4.90;;;;;;;;;;5061262;28;20476;-83
2022/06/16 04:55:13;;;;;;;63.63;5.87;;;;;;;;;;5061322;28;20437;-83
2022/06/16 04:57:41;;;;;;;62.13;5.13;;;;;;;;;;5061487;28;20436;-83
2022/06/16 05:00:10;;;;;;;62.00;5.27;;;;;;;;;;5061831;28;20448;-83
2022/06/16 05:02:37;;;;;;;61.27;5.30;;;;;;;;;;5061845;28;20466;-83
2022/06/16 05:05:06;;;;;;;60.70;5.27;;;;;;;;;;5061605;28;20509;-83
2022/06/16 05:07:34;;;;;;;63.10;5.50;;;;;;;;;;5060001;28;20432;-83
2022/06/16 05:10:01;;;;;;;61.37;5.00;;;;;;;;;;5060725;28;20476;-83
2022/06/16 05:12:28;;;;;;;61.77;5.33;;;;;;;;;;5062536;28;20454;-83
2022/06/16 05:14:55;;;;;;;59.80;4.73;;;;;;;;;;5061365;28;20452;-83
2022/06/16 05:17:23;;;;;;;60.10;4.80;;;;;;;;;;5060868;28;20951;-83
2022/06/16 05:19:50;;;;;;;61.63;5.30;;;;;;;;;;5059218;28;20499;-83
2022/06/16 05:22:19;;;;;;;60.30;5.00;;;;;;;;;;5062500;28;20443;-83
2022/06/16 05:24:47;;;;;;;60.40;4.60;;;;;;;;;;5062780;28;20440;-83
2022/06/16 05:27:15;;;;;;;63.33;5.90;;;;;;;;;;5057675;28;20456;-83
2022/06/16 05:29:42;;;;;;;61.80;5.20;;;;;;;;;;5058100;28;20562;-83
2022/06/16 05:32:10;;;;;;;61.20;5.23;;;;;;;;;;5057650;28;20525;-83
2022/06/16 05:34:38;;;;;;;60.47;4.77;;;;;;;;;;5058637;28;20496;-83
2022/06/16 05:37:05;;;;;;;60.70;4.70;;;;;;;;;;5057847;28;20441;-83
2022/06/16 05:39:34;;;;;;;64.90;4.70;;;;;;;;;;5057787;28;20445;-83
2022/06/16 05:42:01;;;;;;;61.17;4.70;;;;;;;;;;5055582;28;20543;-83
2022/06/16 05:44:29;;;;;;;60.80;4.83;;;;;;;;;;5055727;28;20503;-83
2022/06/16 05:46:56;;;;;;;60.40;4.60;;;;;;;;;;5062420;28;20467;-83
2022/06/16 05:49:23;;;;;;;59.93;4.73;;;;;;;;;;5071717;28;20503;-83
2022/06/16 05:51:51;;;;;;;61.17;5.13;;;;;;;;;;5058114;28;20429;-83
2022/06/16 05:54:18;;;;;;;60.17;4.80;;;;;;;;;;5056793;28;20491;-83
2022/06/16 05:56:47;;;;;;;59.70;4.67;;;;;;;;;;5057308;28;20926;-83
2022/06/16 05:59:15;;;;;;;62.77;5.17;;;;;;;;;;5076762;28;20435;-83
2022/06/16 06:01:43;;;;;;;60.30;4.73;;;;;;;;;;5074930;28;20462;-83
2022/06/16 06:04:10;;;;;;;60.27;4.90;;;;;;;;;;5073712;28;20459;-83
2022/06/16 06:06:37;;;;;;;60.97;4.73;;;;;;;;;;5065611;28;20441;-83
2022/06/16 06:17:21;;;;;;;60.67;4.50;;;;;;;;;;5055190;28;20560;-83
2022/06/16 06:19:48;;;;;;;60.83;4.43;;;;;;;;;;5055100;28;20506;-83
2022/06/16 06:22:19;;;;;;;60.30;4.60;;;;;;;;;;5055560;28;21005;-83
2022/06/16 06:24:47;;;;;;;61.60;4.90;;;;;;;;;;5057038;28;20435;-83
2022/06/16 06:27:16;;;;;;;62.27;5.33;;;;;;;;;;5055777;28;20437;-83
2022/06/16 06:29:44;;;;;;;65.73;4.27;;;;;;;;;;5057542;28;20529;-83
2022/06/16 06:32:12;;;;;;;60.37;4.30;;;;;;;;;;5060063;28;20440;-83
2022/06/16 06:34:40;;;;;;;61.67;4.40;;;;;;;;;;5056541;28;20912;-84
2022/06/16 06:37:08;;;;;;;60.57;4.50;;;;;;;;;;5055327;28;20467;-84
2022/06/16 06:39:35;;;;;;;60.80;4.73;;;;;;;;;;5055464;28;20517;-84
2022/06/16 06:42:03;;;;;;;60.57;4.07;;;;;;;;;;5055737;28;20894;-84
2022/06/16 06:44:32;;;;;;;61.00;4.53;;;;;;;;;;5054986;28;20491;-84
2022/06/16 06:47:00;;;;;;;60.87;4.17;;;;;;;;;;5054945;28;20452;-84
2022/06/16 06:49:28;;;;;;;60.17;4.33;;;;;;;;;;5055959;28;20440;-84
2022/06/16 06:51:55;;;;;;;61.07;4.67;;;;;;;;;;5055435;28;20437;-84
2022/06/16 06:54:23;;;;;;;63.87;5.80;;;;;;;;;;5054785;28;20895;-84
2022/06/16 06:56:51;;;;;;;60.47;4.30;;;;;;;;;;5054669;28;20487;-83
2022/06/16 06:59:20;;;;;;;61.27;4.67;;;;;;;;;;5056065;28;20490;-84
2022/06/16 07:01:49;;;;;;;61.50;4.93;;;;;;;;;;5054834;28;20444;-83
2022/06/16 07:04:16;;;;;;;60.40;4.37;;;;;;;;;;5054605;28;20452;-83
2022/06/16 07:06:44;;;;;;;59.57;4.20;;;;;;;;;;5054573;28;20467;-81
2022/06/16 07:09:11;;;;;;;60.20;4.90;;;;;;;;;;5053888;28;20432;-82
2022/06/16 07:11:40;;;;;;;60.87;4.90;;;;;;;;;;5057667;28;20464;-81
2022/06/16 07:14:07;;;;;;;61.20;4.70;;;;;;;;;;5056701;28;20479;-83
2022/06/16 07:16:35;;;;;;;60.80;4.90;;;;;;;;;;5055916;28;20507;-82
2022/06/16 07:19:04;;;;;;;61.70;4.80;;;;;;;;;;5056259;28;20452;-82
2022/06/16 07:21:31;;;;;;;61.87;4.83;;;;;;;;;;5055461;28;20534;-82
2022/06/16 07:23:59;;;;;;;61.30;4.93;;;;;;;;;;5057145;28;20444;-82
2022/06/16 07:26:26;;;;;;;60.13;4.57;;;;;;;;;;5057326;28;20444;-83
2022/06/16 07:28:55;;;;;;;61.47;4.00;;;;;;;;;;5057875;28;20445;-82
2022/06/16 07:31:22;;;;;;;59.77;4.60;;;;;;;;;;5059191;28;20997;-83
2022/06/16 07:33:50;;;;;;;60.90;4.87;;;;;;;;;;5055943;28;21048;-83
2022/06/16 07:36:18;;;;;;;59.60;4.40;;;;;;;;;;5054225;28;20437;-82
2022/06/16 07:38:46;;;;;;;60.30;4.63;;;;;;;;;;5053633;28;20448;-82
2022/06/16 07:41:32;;;;;;;60.47;4.60;;;;;;;;;;5054462;28;20472;-82
2022/06/16 07:43:59;;;;;;;61.33;5.20;;;;;;;;;;5053507;28;20490;-82
2022/06/16 07:46:27;;;;;;;59.40;4.83;;;;;;;;;;5054362;28;20474;-82
2022/06/16 07:48:54;;;;;;;60.23;4.90;;;;;;;;;;5053732;28;20494;-83
2022/06/16 07:51:23;;;;;;;59.80;4.87;;;;;;;;;;5054654;28;20804;-81
2022/06/16 07:53:50;;;;;;;60.73;4.63;;;;;;;;;;5053483;28;20480;-83
2022/06/16 07:56:18;;;;;;;59.30;3.90;;;;;;;;;;5053424;28;20463;-85
2022/06/16 07:58:45;;;;;;;64.30;4.20;;;;;;;;;;5052924;28;20452;-82
2022/06/16 08:01:12;;;;;;;60.30;4.97;;;;;;;;;;5054032;28;20460;-84
2022/06/16 08:03:40;;;;;;;59.10;4.17;;;;;;;;;;5054883;28;20444;-83
2022/06/16 08:06:08;;;;;;;59.70;4.27;;;;;;;;;;5053687;28;20802;-82
2022/06/16 08:08:37;;;;;;;60.47;4.17;;;;;;;;;;5054006;28;20506;-83
2022/06/16 08:11:05;;;;;;;60.70;5.23;;;;;;;;;;5053347;28;20460;-85
2022/06/16 08:13:33;;;;;;;59.57;4.10;;;;;;;;;;5053011;28;20464;-82
2022/06/16 08:16:00;;;;;;;60.63;4.07;;;;;;;;;;5054411;28;20448;-83
2022/06/16 08:18:27;;;;;;;60.33;4.80;;;;;;;;;;5053825;28;20437;-81
2022/06/16 08:20:55;;;;;;;60.87;4.70;;;;;;;;;;5054814;28;20482;-82
2022/06/16 08:23:22;;;;;;;59.33;4.20;;;;;;;;;;5055369;28;20878;-81
2022/06/16 08:25:51;;;;;;;64.60;4.63;;;;;;;;;;5055287;28;20511;-83
2022/06/16 08:28:19;;;;;;;59.77;4.53;;;;;;;;;;5053623;28;20796;-84
2022/06/16 08:30:47;;;;;;;60.50;4.20;;;;;;;;;;5059800;28;20461;-84
2022/06/16 08:33:15;;;;;;;60.10;4.40;;;;;;;;;;5057418;28;20871;-82
2022/06/16 08:35:44;;;;;;;61.77;4.77;;;;;;;;;;5072788;28;20476;-83
2022/06/16 08:38:12;;;;;;;59.40;4.00;;;;;;;;;;5073238;28;20479;-84
2022/06/16 08:40:43;;;;;;;58.63;3.60;;;;;;;;;;5072662;28;20458;-83
2022/06/16 08:43:14;;;;;;;59.60;4.03;;;;;;;;;;5066116;28;20491;-85
2022/06/16 08:45:43;;;;;;;62.17;4.33;;;;;;;;;;5053045;28;20436;-80
2022/06/16 08:48:19;;;;;;;59.57;3.63;;;;;;;;;;5052440;28;20440;-82
2022/06/16 08:50:48;;;;;;;59.87;4.80;;;;;;;;;;5052765;28;20466;-83
2022/06/16 08:53:24;;;;;;;60.77;4.70;;;;;;;;;;5053150;28;20737;-83
2022/06/16 08:55:55;;;;;;;60.77;4.43;;;;;;;;;;5055476;28;20549;-83
2022/06/16 08:58:29;;;;;;;59.60;4.10;;;;;;;;;;5056131;28;20504;-86
2022/06/16 09:00:57;;;;;;;59.67;3.90;;;;;;;;;;5056650;28;20525;-85
2022/06/16 09:03:29;;;;;;;58.80;3.60;;;;;;;;;;5056372;28;20520;-86
2022/06/16 09:05:59;;;;;;;59.43;3.73;;;;;;;;;;5058303;28;20785;-84
2022/06/16 09:08:32;;;;;;;59.60;4.10;;;;;;;;;;5057086;28;20754;-84
2022/06/16 09:11:02;;;;;;;59.60;4.17;;;;;;;;;;5057078;28;20498;-85
2022/06/16 09:13:36;;;;;;;59.67;3.87;;;;;;;;;;5057269;28;20808;-85
2022/06/16 09:16:09;;;;;;;60.27;4.60;;;;;;;;;;5056358;28;20487;-85
2022/06/16 09:18:54;;;;;;;60.87;4.70;;;;;;;;;;5056106;28;20474;-84
2022/06/16 09:21:26;;;;;;;59.67;4.73;;;;;;;;;;5055844;28;20461;-85
2022/06/16 09:24:04;;;;;;;60.87;4.33;;;;;;;;;;5055866;28;20439;-87
2022/06/16 09:26:32;;;;;;;59.87;4.23;;;;;;;;;;5055810;28;20446;-87
2022/06/16 09:29:04;;;;;;;59.87;4.30;;;;;;;;;;5056019;28;20961;-85
2022/06/16 09:31:34;;;;;;;61.77;5.20;;;;;;;;;;5057076;28;20553;-85
2022/06/16 09:34:04;;;;;;;59.47;4.43;;;;;;;;;;5055888;28;21021;-85
2022/06/16 09:36:35;;;;;;;60.27;4.23;;;;;;;;;;5056127;28;20465;-86
2022/06/16 09:39:05;;;;;;;60.07;4.60;;;;;;;;;;5055599;28;20504;-85
2022/06/16 09:44:30;;;;;;;62.07;4.47;;;;;;;;;;4994664;28;20426;-83
2022/06/16 09:47:00;;;;;;;60.60;4.10;;;;;;;;;;4993958;28;20435;-87
2022/06/16 09:49:29;;;;;;;63.60;4.70;;;;;;;;;;4993851;28;20442;-86
2022/06/16 09:52:00;;;;;;;59.97;4.60;;;;;;;;;;4994277;28;20436;-86
2022/06/16 09:54:31;;;;;;;62.40;4.83;;;;;;;;;;4993698;28;20486;-84
2022/06/16 09:57:02;;;;;;;60.77;4.70;;;;;;;;;;4993594;28;20489;-85
2022/06/16 09:59:34;;;;;;;64.10;5.13;;;;;;;;;;4993565;28;20435;-85
2022/06/16 10:02:03;;;;;;;59.57;4.73;;;;;;;;;;4994349;28;20447;-85
2022/06/16 10:04:30;;;;;;;59.40;4.43;;;;;;;;;;4994601;28;20443;-84
2022/06/16 10:07:02;;;;;;;60.70;5.13;;;;;;;;;;4993851;28;20446;-83
2022/06/16 10:09:32;;;;;;;60.30;3.87;;;;;;;;;;4993883;28;20833;-83
2022/06/16 10:12:03;;;;;;;59.77;4.30;;;;;;;;;;4993443;28;20513;-84
2022/06/16 10:14:36;;;;;;;59.90;4.90;;;;;;;;;;4993224;28;20487;-86
2022/06/16 10:17:04;;;;;;;60.47;4.80;;;;;;;;;;4993230;28;20420;-84
2022/06/16 10:19:33;;;;;;;61.40;4.77;;;;;;;;;;4993299;28;20801;-84
2022/06/16 10:22:02;;;;;;;60.23;4.60;;;;;;;;;;5048279;28;20498;-86
2022/06/16 10:24:32;;;;;;;64.00;4.33;;;;;;;;;;5054646;28;20926;-84
2022/06/16 10:27:00;;;;;;;61.07;4.53;;;;;;;;;;5054701;28;20425;-86
2022/06/16 10:29:29;;;;;;;61.33;4.30;;;;;;;;;;5054612;28;20494;-84
2022/06/16 10:31:58;;;;;;;58.50;4.00;;;;;;;;;;5054642;28;20506;-83
2022/06/16 10:34:31;;;;;;;59.63;4.40;;;;;;;;;;5054228;28;20554;-85
2022/06/16 10:37:01;;;;;;;59.10;4.30;;;;;;;;;;5054541;28;20518;-86
2022/06/16 10:39:33;;;;;;;58.63;4.33;;;;;;;;;;5054280;28;20448;-85
2022/06/16 10:42:02;;;;;;;58.93;3.90;;;;;;;;;;5054346;28;20853;-86
2022/06/16 10:44:30;;;;;;;58.67;4.00;;;;;;;;;;5054009;28;20441;-85
2022/06/16 10:47:01;;;;;;;58.00;4.17;;;;;;;;;;5054160;28;20460;-87
2022/06/16 10:49:29;;;;;;;57.70;3.60;;;;;;;;;;5053679;28;20460;-83
2022/06/16 10:51:59;;;;;;;59.40;4.87;;;;;;;;;;5053975;28;20452;-85
2022/06/16 10:54:31;;;;;;;59.27;3.40;;;;;;;;;;5053911;28;20468;-86
2022/06/16 10:57:09;;;;;;;58.47;3.43;;;;;;;;;;5054166;28;20437;-86
2022/06/16 10:59:39;;;;;;;58.33;3.77;;;;;;;;;;5054150;28;20505;-84
2022/06/16 11:02:16;;;;;;;59.43;4.50;;;;;;;;;;5054100;28;20923;-85
2022/06/16 11:04:44;;;;;;;58.17;3.63;;;;;;;;;;5054052;28;20969;-87
2022/06/16 11:07:12;;;;;;;58.97;4.73;;;;;;;;;;5053671;28;20688;-84
2022/06/16 11:09:39;;;;;;;59.27;4.30;;;;;;;;;;5053897;28;20456;-85
2022/06/16 11:12:08;;;;;;;58.50;4.20;;;;;;;;;;5053999;28;20506;-86
2022/06/16 11:14:36;;;;;;;62.97;4.90;;;;;;;;;;5053481;28;20476;-85
2022/06/16 11:17:08;;;;;;;57.90;3.93;;;;;;;;;;5053738;28;20433;-83
2022/06/16 11:19:38;;;;;;;58.20;4.37;;;;;;;;;;5053283;28;20432;-85
2022/06/16 11:22:05;;;;;;;58.43;3.50;;;;;;;;;;5055105;28;20432;-86
2022/06/16 11:24:34;;;;;;;59.03;3.77;;;;;;;;;;5054222;28;20428;-85
2022/06/16 11:27:07;;;;;;;58.47;4.70;;;;;;;;;;5054052;28;20459;-86
2022/06/16 11:29:35;;;;;;;58.23;3.90;;;;;;;;;;5053448;28;20525;-85
2022/06/16 11:32:06;;;;;;;58.07;3.70;;;;;;;;;;5053864;28;20870;-87
2022/06/16 11:34:33;;;;;;;58.50;3.60;;;;;;;;;;5053274;28;20814;-83
2022/06/16 11:37:14;;;;;;;59.33;3.80;;;;;;;;;;5053258;28;20492;-84
2022/06/16 11:39:46;;;;;;;59.37;3.50;;;;;;;;;;5053273;28;20452;-87
2022/06/16 11:42:21;;;;;;;58.20;3.83;;;;;;;;;;5053705;28;20905;-84
2022/06/16 11:44:51;;;;;;;60.20;4.43;;;;;;;;;;5053103;28;20497;-84
2022/06/16 11:47:27;;;;;;;59.30;3.50;;;;;;;;;;5053073;28;20832;-87
2022/06/16 11:49:57;;;;;;;59.20;3.10;;;;;;;;;;5053086;28;20454;-87
2022/06/16 11:52:30;;;;;;;61.77;4.10;;;;;;;;;;5053241;28;20923;-85
2022/06/16 11:55:02;;;;;;;57.57;3.73;;;;;;;;;;5052954;28;20488;-86
2022/06/16 11:57:32;;;;;;;58.10;3.50;;;;;;;;;;5052632;28;20485;-85
2022/06/16 12:00:14;;;;;;;61.00;3.40;;;;;;;;;;5053055;28;20464;-87
2022/06/16 12:02:48;;;;;;;57.90;3.30;;;;;;;;;;5052913;28;20478;-84
2022/06/16 12:05:23;;;;;;;57.50;3.40;;;;;;;;;;5052772;28;20444;-87
2022/06/16 12:07:58;;;;;;;58.50;3.10;;;;;;;;;;5052344;28;20531;-86
2022/06/16 12:10:29;;;;;;;57.23;3.10;;;;;;;;;;5052639;28;20879;-88
2022/06/16 12:13:00;;;;;;;57.70;3.40;;;;;;;;;;5053014;28;20421;-87
2022/06/16 12:15:31;;;;;;;58.23;3.70;;;;;;;;;;5052671;28;20477;-87
2022/06/16 12:18:04;;;;;;;57.17;2.93;;;;;;;;;;5052590;28;21144;-85
2022/06/16 12:20:34;;;;;;;59.27;3.43;;;;;;;;;;5052856;28;20456;-85
2022/06/16 12:23:06;;;;;;;57.47;3.33;;;;;;;;;;5053102;28;20492;-86
2022/06/16 12:25:37;;;;;;;57.87;3.77;;;;;;;;;;5052966;28;20444;-81
2022/06/16 12:28:10;;;;;;;58.83;3.50;;;;;;;;;;5052195;28;20524;-82
2022/06/16 12:30:40;;;;;;;59.80;3.20;;;;;;;;;;5052347;28;20464;-85
2022/06/16 12:33:12;;;;;;;58.57;3.40;;;;;;;;;;5052441;28;20475;-88
2022/06/16 12:35:42;;;;;;;58.43;3.70;;;;;;;;;;5052164;28;20479;-86
2022/06/16 12:38:14;;;;;;;58.27;3.37;;;;;;;;;;5052247;28;20456;-84
2022/06/16 12:40:45;;;;;;;57.70;3.07;;;;;;;;;;5052417;28;20474;-84
2022/06/16 12:43:16;;;;;;;57.70;3.60;;;;;;;;;;5052567;28;20491;-84
2022/06/16 12:45:45;;;;;;;57.60;3.10;;;;;;;;;;5052731;28;20424;-84
2022/06/16 12:48:14;;;;;;;57.80;3.60;;;;;;;;;;5052747;28;20502;-85
2022/06/16 12:50:43;;;;;;;57.63;3.50;;;;;;;;;;5052534;28;20870;-86
2022/06/16 12:53:15;;;;;;;57.90;3.10;;;;;;;;;;5052179;28;20440;-84
2022/06/16 12:55:44;;;;;;;60.43;3.10;;;;;;;;;;5052836;28;20483;-84
2022/06/16 12:58:15;;;;;;;57.30;2.80;;;;;;;;;;5052343;28;20491;-84
2022/06/16 13:00:44;;;;;;;57.20;2.90;;;;;;;;;;5060746;28;20504;-85
2022/06/16 13:03:13;;;;;;;57.87;3.60;;;;;;;;;;5055180;28;20915;-86
2022/06/16 13:05:41;;;;;;;57.90;3.10;;;;;;;;;;5052891;28;20865;-86
2022/06/16 13:08:09;;;;;;;58.03;3.10;;;;;;;;;;5062237;28;20435;-87
2022/06/16 13:10:40;;;;;;;58.67;3.03;;;;;;;;;;5065805;28;20456;-86
2022/06/16 13:13:08;;;;;;;57.47;2.93;;;;;;;;;;5068095;28;20861;-86
2022/06/16 13:15:38;;;;;;;57.60;3.10;;;;;;;;;;5063291;28;21105;-86
2022/06/16 13:18:08;;;;;;;58.10;3.70;;;;;;;;;;5052565;28;20448;-84
2022/06/16 13:20:36;;;;;;;58.70;3.47;;;;;;;;;;5051991;28;20468;-86
2022/06/16 13:23:05;;;;;;;58.00;3.50;;;;;;;;;;5051981;28;20464;-85
2022/06/16 13:25:40;;;;;;;57.97;3.10;;;;;;;;;;5052131;28;20463;-83
2022/06/16 13:28:12;;;;;;;57.70;3.43;;;;;;;;;;5052040;28;20547;-84
2022/06/16 13:30:41;;;;;;;60.20;3.70;;;;;;;;;;5051811;28;20476;-83
2022/06/16 13:33:26;;;;;;;57.70;3.57;;;;;;;;;;5052016;28;20485;-82
2022/06/16 13:36:08;;;;;;;58.53;3.60;;;;;;;;;;5051932;28;20530;-85
2022/06/16 13:38:41;;;;;;;58.67;3.50;;;;;;;;;;5051728;28;20889;-85
2022/06/16 13:41:27;;;;;;;58.80;3.07;;;;;;;;;;5051680;28;20536;-86
2022/06/16 13:44:13;;;;;;;60.17;3.77;;;;;;;;;;5055388;28;20926;-85
2022/06/16 13:47:04;;;;;;;59.00;3.57;;;;;;;;;;5055489;28;20490;-84
2022/06/16 13:49:34;;;;;;;57.63;2.97;;;;;;;;;;5054996;28;20474;-83
2022/06/16 13:52:08;;;;;;;58.50;3.20;;;;;;;;;;5055776;28;20452;-84
2022/06/16 13:54:37;;;;;;;58.27;3.00;;;;;;;;;;5055334;28;20834;-84
2022/06/16 13:57:18;;;;;;;61.73;3.13;;;;;;;;;;5055492;28;20490;-86
2022/06/16 13:59:46;;;;;;;57.90;2.77;;;;;;;;;;5055445;28;20510;-85
2022/06/16 14:02:14;;;;;;;58.10;3.10;;;;;;;;;;5056051;28;20527;-84
2022/06/16 14:05:00;;;;;;;57.90;3.10;;;;;;;;;;5055061;28;20440;-85
2022/06/16 14:07:28;;;;;;;57.77;3.17;;;;;;;;;;5054837;28;20447;-84
2022/06/16 14:10:01;;;;;;;57.70;3.13;;;;;;;;;;5055103;28;20878;-84
2022/06/16 14:12:43;;;;;;;58.33;3.30;;;;;;;;;;5055381;28;20437;-85
2022/06/16 14:15:12;;;;;;;58.53;3.50;;;;;;;;;;5055354;28;20479;-83
2022/06/16 14:18:00;;;;;;;57.57;3.00;;;;;;;;;;5054938;28;20475;-84
2022/06/16 14:20:31;;;;;;;57.87;3.43;;;;;;;;;;5055036;28;20459;-86
2022/06/16 14:23:01;;;;;;;58.10;3.10;;;;;;;;;;5054716;28;20927;-86
2022/06/16 14:25:30;;;;;;;57.33;2.80;;;;;;;;;;5054768;28;20444;-85
2022/06/16 14:27:59;;;;;;;60.00;3.10;;;;;;;;;;5054557;28;20974;-85
2022/06/16 14:30:29;;;;;;;57.57;3.00;;;;;;;;;;5054718;28;21111;-85
2022/06/16 14:32:59;;;;;;;57.40;2.70;;;;;;;;;;5054758;28;20866;-84
2022/06/16 14:35:27;;;;;;;58.37;2.83;;;;;;;;;;5054225;28;20452;-86
2022/06/16 14:38:01;;;;;;;58.43;3.47;;;;;;;;;;5054259;28;20514;-85
2022/06/16 14:40:32;;;;;;;62.70;3.57;;;;;;;;;;5054429;28;20539;-86
2022/06/16 14:43:01;;;;;;;58.67;3.27;;;;;;;;;;5054363;28;20425;-87
2022/06/16 14:45:30;;;;;;;57.80;3.17;;;;;;;;;;5054283;28;20444;-87
2022/06/16 14:48:00;;;;;;;58.37;3.40;;;;;;;;;;5054029;28;20439;-86
2022/06/16 14:50:30;;;;;;;59.47;3.23;;;;;;;;;;5054209;28;20479;-86
2022/06/16 14:53:05;;;;;;;57.00;2.50;;;;;;;;;;5054090;28;20433;-86
2022/06/16 14:55:34;;;;;;;57.60;2.87;;;;;;;;;;5054339;28;20466;-86
2022/06/16 14:58:05;;;;;;;57.87;3.13;;;;;;;;;;5054171;28;20510;-90
2022/06/16 15:00:33;;;;;;;57.67;2.70;;;;;;;;;;5054306;28;20552;-85
2022/06/16 15:03:03;;;;;;;57.47;2.60;;;;;;;;;;5054237;28;20441;-83
2022/06/16 15:05:30;;;;;;;57.80;2.77;;;;;;;;;;5054095;28;20622;-83